Time;durP1;ratioP1;P1;durP2;ratioP2;P2;SDS_P1;SDS_P2;PMS_P1;PMS_P2;Temp;Humidity;BMP_temperature;BMP_pressure;BME280_temperature;BME280_humidity;BME280_pressure;Samples;Min_cycle;Max_cycle;Signal;HPM_P1;HPM_P2
2023/10/24 00:00:21;;;;;;;25.63;14.70;;;;;;;;;;5042621;28;20033;-70
2023/10/24 00:02:47;;;;;;;27.33;15.38;;;;;;;;;;5051224;28;20128;-70
2023/10/24 00:05:13;;;;;;;27.08;14.77;;;;;;;;;;5036791;28;20037;-70
2023/10/24 00:07:39;;;;;;;30.65;14.48;;;;;;;;;;5030569;28;20041;-70
2023/10/24 00:10:05;;;;;;;25.83;14.82;;;;;;;;;;5037541;28;20095;-70
2023/10/24 00:12:31;;;;;;;26.83;14.88;;;;;;;;;;5047971;28;20383;-70
2023/10/24 00:14:58;;;;;;;26.20;14.63;;;;;;;;;;5035572;28;20049;-70
2023/10/24 00:17:24;;;;;;;32.13;16.33;;;;;;;;;;5027999;28;20065;-70
2023/10/24 00:19:50;;;;;;;27.33;15.07;;;;;;;;;;5041452;28;20546;-70
2023/10/24 00:22:16;;;;;;;27.35;14.95;;;;;;;;;;5051289;28;20033;-70
2023/10/24 00:24:42;;;;;;;26.90;14.90;;;;;;;;;;5032567;28;20127;-70
2023/10/24 00:27:08;;;;;;;24.30;14.27;;;;;;;;;;5029149;28;20049;-70
2023/10/24 00:29:34;;;;;;;26.92;15.32;;;;;;;;;;5039764;28;20041;-70
2023/10/24 00:32:00;;;;;;;27.95;14.73;;;;;;;;;;5034049;28;20044;-70
2023/10/24 00:34:26;;;;;;;30.63;15.38;;;;;;;;;;5034544;28;20692;-70
2023/10/24 00:36:52;;;;;;;25.33;13.75;;;;;;;;;;5039803;28;20045;-70
2023/10/24 00:39:18;;;;;;;26.38;14.15;;;;;;;;;;5043570;28;20041;-70
2023/10/24 00:41:44;;;;;;;30.90;14.93;;;;;;;;;;5035945;28;20044;-70
2023/10/24 00:44:10;;;;;;;26.30;14.82;;;;;;;;;;5054391;28;20063;-70
2023/10/24 00:46:38;;;;;;;30.48;14.82;;;;;;;;;;5052464;28;20076;-70
2023/10/24 00:49:04;;;;;;;26.35;15.05;;;;;;;;;;5041479;28;20088;-70
2023/10/24 00:51:30;;;;;;;26.85;14.45;;;;;;;;;;5034865;28;20045;-70
2023/10/24 00:53:56;;;;;;;29.33;14.93;;;;;;;;;;5032198;28;20052;-70
2023/10/24 00:56:22;;;;;;;25.58;14.80;;;;;;;;;;5040606;28;20503;-70
2023/10/24 00:58:48;;;;;;;25.60;14.57;;;;;;;;;;5043335;28;20064;-70
2023/10/24 01:01:15;;;;;;;25.05;14.05;;;;;;;;;;5040811;28;20038;-70
2023/10/24 01:03:43;;;;;;;27.30;14.75;;;;;;;;;;5032889;28;20048;-70
2023/10/24 01:06:09;;;;;;;26.65;14.98;;;;;;;;;;5027393;28;20037;-71
2023/10/24 01:08:35;;;;;;;23.63;13.30;;;;;;;;;;5024410;28;20069;-70
2023/10/24 01:11:01;;;;;;;27.20;14.35;;;;;;;;;;5045999;28;20506;-70
2023/10/24 01:13:28;;;;;;;24.88;13.90;;;;;;;;;;5035729;28;20064;-71
2023/10/24 01:15:54;;;;;;;24.58;13.55;;;;;;;;;;5033778;28;20387;-71
2023/10/24 01:18:20;;;;;;;27.83;14.77;;;;;;;;;;5036276;28;20033;-70
2023/10/24 01:20:45;;;;;;;26.90;13.85;;;;;;;;;;5035264;28;20042;-70
2023/10/24 01:23:11;;;;;;;25.70;13.73;;;;;;;;;;5028591;28;20472;-70
2023/10/24 01:25:41;;;;;;;24.15;13.75;;;;;;;;;;5027541;28;20052;-70
2023/10/24 01:28:07;;;;;;;26.75;13.73;;;;;;;;;;5037674;28;20480;-70
2023/10/24 01:30:34;;;;;;;27.52;14.25;;;;;;;;;;5032025;28;20369;-70
2023/10/24 01:33:00;;;;;;;25.38;12.73;;;;;;;;;;5045877;28;20064;-70
2023/10/24 01:35:26;;;;;;;24.00;13.63;;;;;;;;;;5037365;28;20049;-71
2023/10/24 01:37:53;;;;;;;25.77;13.90;;;;;;;;;;5035622;28;20387;-71
2023/10/24 01:40:19;;;;;;;22.13;12.68;;;;;;;;;;5026454;28;20551;-71
2023/10/24 01:42:44;;;;;;;23.40;12.80;;;;;;;;;;5032126;28;20117;-70
2023/10/24 01:45:11;;;;;;;26.33;13.45;;;;;;;;;;5039410;28;20029;-70
2023/10/24 01:47:37;;;;;;;26.83;13.10;;;;;;;;;;5034855;28;20052;-70
2023/10/24 01:50:03;;;;;;;25.25;13.05;;;;;;;;;;5032313;28;20531;-70
2023/10/24 01:52:29;;;;;;;19.92;12.10;;;;;;;;;;5040202;28;20433;-70
2023/10/24 01:54:55;;;;;;;22.70;12.77;;;;;;;;;;5030929;28;20041;-70
2023/10/24 01:57:21;;;;;;;24.23;13.57;;;;;;;;;;5033813;28;20029;-70
2023/10/24 01:59:47;;;;;;;24.42;13.30;;;;;;;;;;5038395;28;20041;-70
2023/10/24 02:02:13;;;;;;;21.92;12.35;;;;;;;;;;5034622;28;20437;-71
2023/10/24 02:04:39;;;;;;;24.00;13.30;;;;;;;;;;5039310;28;20048;-70
2023/10/24 02:07:05;;;;;;;22.58;13.00;;;;;;;;;;5031220;28;20037;-70
2023/10/24 02:09:31;;;;;;;23.70;13.43;;;;;;;;;;5029704;28;20072;-70
2023/10/24 02:11:59;;;;;;;20.52;13.35;;;;;;;;;;5033779;28;20052;-70
2023/10/24 02:14:25;;;;;;;22.08;13.05;;;;;;;;;;5038178;28;20415;-70
2023/10/24 02:16:51;;;;;;;25.65;14.30;;;;;;;;;;5046939;28;20030;-70
2023/10/24 02:19:17;;;;;;;23.80;13.85;;;;;;;;;;5036785;28;20045;-71
2023/10/24 02:21:43;;;;;;;24.83;14.48;;;;;;;;;;5035007;28;20033;-71
2023/10/24 02:24:09;;;;;;;24.92;14.23;;;;;;;;;;5052572;28;20036;-71
2023/10/24 02:26:35;;;;;;;26.42;13.68;;;;;;;;;;5049831;28;20515;-71
2023/10/24 02:29:01;;;;;;;31.45;14.65;;;;;;;;;;5034650;28;20033;-70
2023/10/24 02:31:28;;;;;;;24.60;14.73;;;;;;;;;;5052505;28;20036;-70
2023/10/24 02:33:54;;;;;;;27.20;14.73;;;;;;;;;;5040927;28;20076;-70
2023/10/24 02:36:20;;;;;;;27.98;14.60;;;;;;;;;;5035372;28;20037;-70
2023/10/24 02:38:46;;;;;;;25.35;14.20;;;;;;;;;;5036817;28;20044;-70
2023/10/24 02:41:12;;;;;;;29.02;15.13;;;;;;;;;;5025419;28;20120;-70
2023/10/24 02:43:38;;;;;;;29.52;15.38;;;;;;;;;;5032070;28;20072;-70
2023/10/24 02:46:04;;;;;;;34.05;15.93;;;;;;;;;;5037001;28;20105;-70
2023/10/24 02:48:30;;;;;;;30.75;15.85;;;;;;;;;;5030719;28;20132;-70
2023/10/24 02:50:57;;;;;;;27.90;14.70;;;;;;;;;;5031155;28;20510;-70
2023/10/24 02:53:24;;;;;;;28.08;14.98;;;;;;;;;;5032114;28;20075;-70
2023/10/24 02:55:50;;;;;;;30.63;15.05;;;;;;;;;;5036343;28;20073;-70
2023/10/24 02:58:17;;;;;;;29.35;15.43;;;;;;;;;;5031899;28;20029;-70
2023/10/24 03:00:44;;;;;;;27.50;14.13;;;;;;;;;;5031519;28;20073;-70
2023/10/24 03:03:10;;;;;;;29.45;15.38;;;;;;;;;;5014476;28;20042;-70
2023/10/24 03:05:36;;;;;;;28.58;14.60;;;;;;;;;;5031018;28;20045;-70
2023/10/24 03:08:03;;;;;;;30.75;15.55;;;;;;;;;;5045347;28;20482;-70
2023/10/24 03:10:29;;;;;;;29.30;15.07;;;;;;;;;;5030907;28;20578;-70
2023/10/24 03:12:55;;;;;;;30.58;15.20;;;;;;;;;;5026300;28;20053;-70
2023/10/24 03:15:21;;;;;;;29.08;15.38;;;;;;;;;;5051949;28;20494;-70
2023/10/24 03:17:47;;;;;;;30.00;15.05;;;;;;;;;;5050352;28;20037;-70
2023/10/24 03:20:13;;;;;;;31.15;15.60;;;;;;;;;;5031413;28;20138;-70
2023/10/24 03:22:39;;;;;;;27.38;14.18;;;;;;;;;;5037950;28;20087;-70
2023/10/24 03:25:06;;;;;;;27.17;14.85;;;;;;;;;;5031532;28;20048;-70
2023/10/24 03:27:32;;;;;;;26.58;15.60;;;;;;;;;;5031266;28;20048;-70
2023/10/24 03:29:58;;;;;;;22.63;13.82;;;;;;;;;;5031763;28;20041;-70
2023/10/24 03:32:26;;;;;;;24.80;14.70;;;;;;;;;;5031636;28;20034;-70
2023/10/24 03:34:52;;;;;;;26.83;15.27;;;;;;;;;;5038256;28;20514;-70
2023/10/24 03:37:20;;;;;;;26.38;15.80;;;;;;;;;;5033915;28;20034;-70
2023/10/24 03:39:46;;;;;;;25.58;15.45;;;;;;;;;;5029195;28;20041;-70
2023/10/24 03:42:14;;;;;;;28.48;15.60;;;;;;;;;;5051765;22;20052;-73
2023/10/24 03:44:40;;;;;;;27.60;16.80;;;;;;;;;;5047859;28;20072;-73
2023/10/24 03:47:07;;;;;;;26.20;15.15;;;;;;;;;;5033959;28;20043;-73
2023/10/24 03:49:33;;;;;;;36.35;17.98;;;;;;;;;;5045281;28;20495;-73
2023/10/24 03:51:59;;;;;;;28.00;16.45;;;;;;;;;;5050033;28;20040;-73
2023/10/24 03:54:26;;;;;;;28.40;16.10;;;;;;;;;;5044002;28;20121;-73
2023/10/24 03:56:52;;;;;;;27.55;16.65;;;;;;;;;;5049022;28;20526;-73
2023/10/24 03:59:18;;;;;;;26.80;15.80;;;;;;;;;;5049082;28;20048;-73
2023/10/24 04:01:44;;;;;;;28.67;15.10;;;;;;;;;;5045046;28;20120;-72
2023/10/24 04:04:10;;;;;;;29.10;15.55;;;;;;;;;;5055286;28;20037;-72
2023/10/24 04:06:36;;;;;;;28.42;15.13;;;;;;;;;;5049274;28;20094;-72
2023/10/24 04:09:06;;;;;;;25.23;14.25;;;;;;;;;;5053817;28;20516;-72
2023/10/24 04:11:32;;;;;;;26.55;14.63;;;;;;;;;;5054815;28;20045;-72
2023/10/24 04:13:58;;;;;;;26.85;15.27;;;;;;;;;;5052891;28;20044;-73
2023/10/24 04:16:24;;;;;;;26.48;14.63;;;;;;;;;;5048601;28;20045;-72
2023/10/24 04:18:50;;;;;;;26.80;15.20;;;;;;;;;;5054428;28;20033;-72
2023/10/24 04:21:17;;;;;;;28.17;13.77;;;;;;;;;;5054539;28;20047;-72
2023/10/24 04:23:43;;;;;;;22.00;13.50;;;;;;;;;;5052606;28;20040;-72
2023/10/24 04:26:09;;;;;;;21.40;13.30;;;;;;;;;;5053670;28;20391;-72
2023/10/24 04:28:36;;;;;;;19.40;12.07;;;;;;;;;;5051842;28;20040;-72
2023/10/24 04:31:02;;;;;;;17.30;11.43;;;;;;;;;;5043638;28;20049;-72
2023/10/24 04:33:28;;;;;;;17.23;11.77;;;;;;;;;;5034672;28;20047;-72
2023/10/24 04:35:54;;;;;;;18.40;12.35;;;;;;;;;;5044148;28;20037;-72
2023/10/24 04:38:20;;;;;;;17.08;10.68;;;;;;;;;;5049128;28;20088;-72
2023/10/24 04:40:47;;;;;;;17.65;11.27;;;;;;;;;;5041913;28;20053;-72
2023/10/24 04:43:13;;;;;;;16.20;10.98;;;;;;;;;;5049801;28;20080;-72
2023/10/24 04:45:39;;;;;;;13.80;9.45;;;;;;;;;;5053392;28;20029;-72
2023/10/24 04:48:05;;;;;;;14.25;9.98;;;;;;;;;;5046871;28;20380;-72
2023/10/24 04:50:31;;;;;;;14.27;9.40;;;;;;;;;;5051784;28;20033;-72
2023/10/24 04:52:57;;;;;;;13.80;8.70;;;;;;;;;;5053062;28;20048;-72
2023/10/24 04:55:24;;;;;;;12.38;8.93;;;;;;;;;;5054411;28;20406;-72
2023/10/24 04:57:50;;;;;;;12.32;8.70;;;;;;;;;;5052252;28;20491;-73
2023/10/24 05:00:16;;;;;;;12.68;8.50;;;;;;;;;;5052565;28;20044;-72
2023/10/24 05:02:43;;;;;;;12.93;8.27;;;;;;;;;;5051870;28;20040;-72
2023/10/24 05:05:09;;;;;;;13.35;7.78;;;;;;;;;;5050208;28;20068;-72
2023/10/24 05:07:35;;;;;;;10.98;8.20;;;;;;;;;;5054384;28;20041;-73
2023/10/24 05:10:01;;;;;;;14.63;7.85;;;;;;;;;;5053795;28;20128;-73
2023/10/24 05:12:27;;;;;;;12.05;7.95;;;;;;;;;;5052271;28;20037;-73
2023/10/24 05:14:53;;;;;;;9.57;7.55;;;;;;;;;;5046742;28;20095;-72
2023/10/24 05:17:19;;;;;;;10.95;8.05;;;;;;;;;;5048842;28;20511;-72
2023/10/24 05:19:45;;;;;;;9.20;7.13;;;;;;;;;;5051680;28;20049;-72
2023/10/24 05:22:11;;;;;;;14.73;8.10;;;;;;;;;;5049439;28;20059;-73
2023/10/24 05:24:38;;;;;;;14.05;8.32;;;;;;;;;;5046066;28;20125;-73
2023/10/24 05:27:05;;;;;;;12.70;8.05;;;;;;;;;;5051225;28;20049;-72
2023/10/24 05:29:34;;;;;;;10.18;8.30;;;;;;;;;;5050515;28;20044;-73
2023/10/24 05:32:00;;;;;;;11.15;8.52;;;;;;;;;;5050463;28;20087;-73
2023/10/24 05:34:29;;;;;;;13.07;7.93;;;;;;;;;;5053324;28;20039;-73
2023/10/24 05:36:56;;;;;;;11.02;8.05;;;;;;;;;;5046575;28;20071;-72
2023/10/24 05:39:24;;;;;;;12.27;8.07;;;;;;;;;;5042991;28;20037;-72
2023/10/24 05:41:50;;;;;;;11.07;7.70;;;;;;;;;;5049016;28;20096;-72
2023/10/24 05:44:16;;;;;;;12.30;7.78;;;;;;;;;;5048566;28;20041;-73
2023/10/24 05:46:42;;;;;;;11.75;7.63;;;;;;;;;;5029953;28;20052;-73
2023/10/24 05:49:08;;;;;;;13.57;7.68;;;;;;;;;;5034768;28;20082;-72
2023/10/24 05:51:34;;;;;;;10.70;7.40;;;;;;;;;;5052013;28;20044;-72
2023/10/24 05:54:00;;;;;;;13.48;7.85;;;;;;;;;;5044158;28;20033;-72
2023/10/24 05:56:26;;;;;;;10.50;7.55;;;;;;;;;;5051365;28;20033;-72
2023/10/24 05:58:54;;;;;;;13.82;7.53;;;;;;;;;;5047023;28;20128;-72
2023/10/24 06:01:20;;;;;;;11.50;7.68;;;;;;;;;;5046563;28;20056;-72
2023/10/24 06:03:47;;;;;;;11.85;8.43;;;;;;;;;;5047423;28;20033;-72
2023/10/24 06:06:13;;;;;;;12.88;7.90;;;;;;;;;;5046016;28;20116;-72
2023/10/24 06:08:39;;;;;;;11.75;7.60;;;;;;;;;;5051349;28;20571;-72
2023/10/24 06:11:06;;;;;;;12.95;7.95;;;;;;;;;;5051149;28;20076;-72
2023/10/24 06:13:32;;;;;;;13.35;8.40;;;;;;;;;;5044083;28;20049;-72
2023/10/24 06:16:08;;;;;;;14.50;8.52;;;;;;;;;;5049517;28;20048;-72
2023/10/24 06:18:33;;;;;;;13.15;8.65;;;;;;;;;;5050755;28;20070;-72
2023/10/24 06:21:03;;;;;;;12.32;8.27;;;;;;;;;;5047000;28;20072;-72
2023/10/24 06:23:29;;;;;;;11.20;8.13;;;;;;;;;;5051182;28;20044;-72
2023/10/24 06:25:56;;;;;;;12.48;7.88;;;;;;;;;;5049022;28;20486;-72
2023/10/24 06:28:22;;;;;;;10.07;7.90;;;;;;;;;;5046649;28;20068;-72
2023/10/24 06:30:49;;;;;;;12.45;8.40;;;;;;;;;;5034460;28;20041;-72
2023/10/24 06:33:15;;;;;;;9.65;7.60;;;;;;;;;;5052370;28;20036;-71
2023/10/24 06:35:41;;;;;;;11.85;7.07;;;;;;;;;;5052347;28;20041;-72
2023/10/24 06:38:07;;;;;;;10.15;7.15;;;;;;;;;;5049099;28;20551;-72
2023/10/24 06:40:33;;;;;;;9.25;6.97;;;;;;;;;;5047780;28;20060;-72
2023/10/24 06:43:01;;;;;;;9.80;6.95;;;;;;;;;;5052305;28;20135;-72
2023/10/24 06:45:28;;;;;;;9.40;6.82;;;;;;;;;;5052742;28;20043;-72
2023/10/24 06:47:54;;;;;;;10.25;6.80;;;;;;;;;;5047549;28;20045;-72
2023/10/24 06:50:19;;;;;;;9.77;6.78;;;;;;;;;;5045046;28;20037;-72
2023/10/24 06:52:45;;;;;;;10.02;6.97;;;;;;;;;;5035938;28;20041;-72
2023/10/24 06:55:11;;;;;;;10.02;6.82;;;;;;;;;;5046534;28;20033;-72
2023/10/24 06:57:37;;;;;;;10.95;7.15;;;;;;;;;;5050297;28;20418;-72
2023/10/24 07:00:04;;;;;;;10.65;7.20;;;;;;;;;;5047982;28;20548;-72
2023/10/24 07:02:33;;;;;;;10.13;7.10;;;;;;;;;;5049946;28;20115;-71
2023/10/24 07:05:00;;;;;;;11.60;7.65;;;;;;;;;;5047759;28;20049;-72
2023/10/24 07:07:26;;;;;;;11.57;7.13;;;;;;;;;;5050518;28;20033;-72
2023/10/24 07:09:52;;;;;;;10.07;7.10;;;;;;;;;;5043756;28;20059;-72
2023/10/24 07:12:18;;;;;;;9.45;7.03;;;;;;;;;;5050009;28;20515;-72
2023/10/24 07:14:44;;;;;;;12.23;7.35;;;;;;;;;;5050479;28;20106;-72
2023/10/24 07:17:10;;;;;;;9.90;7.55;;;;;;;;;;5043007;28;20597;-72
2023/10/24 07:19:36;;;;;;;12.15;8.05;;;;;;;;;;5050314;28;20107;-72
2023/10/24 07:22:02;;;;;;;11.07;7.40;;;;;;;;;;5048405;28;20120;-72
2023/10/24 07:24:28;;;;;;;10.90;7.47;;;;;;;;;;5039534;28;20041;-72
2023/10/24 07:26:54;;;;;;;11.57;7.88;;;;;;;;;;5044283;28;20041;-72
2023/10/24 07:29:21;;;;;;;12.23;7.97;;;;;;;;;;5048816;28;20043;-72
2023/10/24 07:31:47;;;;;;;13.13;8.00;;;;;;;;;;5026980;28;20488;-72
2023/10/24 07:34:13;;;;;;;12.32;7.85;;;;;;;;;;5050161;28;20051;-72
2023/10/24 07:36:38;;;;;;;12.73;8.07;;;;;;;;;;5053713;28;20384;-72
2023/10/24 07:39:05;;;;;;;13.68;8.27;;;;;;;;;;5054546;28;20036;-72
2023/10/24 07:41:31;;;;;;;13.43;7.55;;;;;;;;;;5055377;28;20041;-72
2023/10/24 07:43:57;;;;;;;13.00;8.35;;;;;;;;;;5054085;28;20041;-72
2023/10/24 07:46:23;;;;;;;12.20;8.50;;;;;;;;;;5055284;28;20517;-72
2023/10/24 07:48:52;;;;;;;13.13;8.75;;;;;;;;;;5056701;28;20067;-71
2023/10/24 07:51:18;;;;;;;12.00;8.63;;;;;;;;;;5055156;28;20043;-71
2023/10/24 07:53:44;;;;;;;11.85;8.07;;;;;;;;;;5053270;28;20041;-72
2023/10/24 07:56:10;;;;;;;12.35;8.85;;;;;;;;;;5047263;28;20037;-72
2023/10/24 07:58:36;;;;;;;14.55;9.07;;;;;;;;;;5053466;28;20033;-72
2023/10/24 08:01:04;;;;;;;12.93;8.77;;;;;;;;;;5052784;28;20466;-73
2023/10/24 08:03:30;;;;;;;13.98;8.93;;;;;;;;;;5049026;28;20049;-73
2023/10/24 08:05:56;;;;;;;14.15;9.02;;;;;;;;;;5055229;28;20100;-72
2023/10/24 08:08:22;;;;;;;13.65;9.07;;;;;;;;;;5053332;28;20371;-72
2023/10/24 08:10:48;;;;;;;11.98;8.98;;;;;;;;;;5054691;28;20047;-72
2023/10/24 08:13:14;;;;;;;15.43;9.07;;;;;;;;;;5048072;28;20461;-72
2023/10/24 08:15:40;;;;;;;14.60;9.50;;;;;;;;;;5054913;28;20037;-72
2023/10/24 08:18:06;;;;;;;12.60;8.40;;;;;;;;;;5052246;28;20119;-72
2023/10/24 08:20:32;;;;;;;12.55;8.48;;;;;;;;;;5053418;28;20132;-73
2023/10/24 08:22:58;;;;;;;13.40;9.00;;;;;;;;;;5054852;28;20033;-73
2023/10/24 08:25:24;;;;;;;12.98;8.65;;;;;;;;;;5054498;28;20037;-73
2023/10/24 08:27:50;;;;;;;12.90;8.52;;;;;;;;;;5054343;28;20056;-73
2023/10/24 08:30:16;;;;;;;14.43;9.10;;;;;;;;;;5052862;28;20044;-73
2023/10/24 08:32:42;;;;;;;13.27;8.95;;;;;;;;;;5054904;28;20056;-73
2023/10/24 08:35:08;;;;;;;14.20;9.27;;;;;;;;;;5051162;28;20044;-73
2023/10/24 08:37:35;;;;;;;15.55;9.38;;;;;;;;;;5051324;28;20036;-73
2023/10/24 08:40:01;;;;;;;15.35;8.77;;;;;;;;;;5053532;28;20037;-73
2023/10/24 08:42:29;;;;;;;14.57;9.13;;;;;;;;;;5054201;28;20033;-72
2023/10/24 08:44:55;;;;;;;11.30;8.35;;;;;;;;;;5047939;28;20045;-72
2023/10/24 08:47:21;;;;;;;13.65;8.65;;;;;;;;;;5053151;28;20399;-72
2023/10/24 08:49:47;;;;;;;12.60;8.73;;;;;;;;;;5051058;28;20048;-72
2023/10/24 08:52:13;;;;;;;14.20;8.73;;;;;;;;;;5053390;28;20029;-73
2023/10/24 08:54:39;;;;;;;11.85;8.45;;;;;;;;;;5054269;28;20047;-73
2023/10/24 08:57:05;;;;;;;12.35;8.10;;;;;;;;;;5051376;28;20032;-73
2023/10/24 08:59:35;;;;;;;10.90;8.02;;;;;;;;;;5050589;28;20037;-73
2023/10/24 09:02:01;;;;;;;9.82;7.45;;;;;;;;;;5041900;28;20391;-73
2023/10/24 09:04:29;;;;;;;12.98;8.15;;;;;;;;;;5044266;28;20120;-73
2023/10/24 09:06:55;;;;;;;10.63;7.82;;;;;;;;;;5044249;28;20045;-73
2023/10/24 09:09:23;;;;;;;11.52;7.55;;;;;;;;;;5050791;28;20043;-73
2023/10/24 09:11:53;;;;;;;10.93;7.40;;;;;;;;;;5046418;28;20086;-73
2023/10/24 09:14:19;;;;;;;10.43;7.65;;;;;;;;;;5053367;28;20353;-73
2023/10/24 09:16:45;;;;;;;10.77;7.10;;;;;;;;;;5055171;28;20465;-73
2023/10/24 09:19:14;;;;;;;9.32;7.50;;;;;;;;;;5046763;28;20033;-73
2023/10/24 09:21:40;;;;;;;9.75;7.00;;;;;;;;;;5050011;28;20632;-73
2023/10/24 09:24:12;;;;;;;11.07;7.20;;;;;;;;;;5047086;28;20122;-73
2023/10/24 09:26:38;;;;;;;9.48;6.30;;;;;;;;;;5050823;28;20041;-73
2023/10/24 09:29:08;;;;;;;9.38;6.85;;;;;;;;;;5053431;28;20033;-73
2023/10/24 09:31:34;;;;;;;8.35;6.25;;;;;;;;;;5051930;28;20391;-72
2023/10/24 09:34:00;;;;;;;8.48;6.53;;;;;;;;;;5043084;28;20033;-73
2023/10/24 09:36:26;;;;;;;8.55;6.47;;;;;;;;;;5051899;28;20045;-73
2023/10/24 09:38:54;;;;;;;8.80;6.18;;;;;;;;;;5050973;28;20029;-73
2023/10/24 09:41:20;;;;;;;8.43;6.00;;;;;;;;;;5058566;22;20102;-70
2023/10/24 09:43:48;;;;;;;8.95;6.55;;;;;;;;;;5064278;28;20448;-70
2023/10/24 09:46:21;;;;;;;9.00;6.45;;;;;;;;;;5060015;28;20041;-70
2023/10/24 09:48:48;;;;;;;7.72;5.90;;;;;;;;;;5068733;28;20089;-70
2023/10/24 09:51:14;;;;;;;8.80;6.03;;;;;;;;;;5070337;28;20415;-71
2023/10/24 09:53:40;;;;;;;7.15;5.47;;;;;;;;;;5071677;28;20496;-71
2023/10/24 09:56:07;;;;;;;9.45;6.20;;;;;;;;;;5069026;28;20430;-71
2023/10/24 09:58:35;;;;;;;10.20;6.25;;;;;;;;;;5069589;28;20115;-71
2023/10/24 10:01:01;;;;;;;8.27;6.05;;;;;;;;;;5071428;28;20049;-71
2023/10/24 10:03:27;;;;;;;7.78;5.90;;;;;;;;;;5073289;28;20433;-71
2023/10/24 10:05:53;;;;;;;8.65;6.05;;;;;;;;;;5070716;28;20667;-71
2023/10/24 10:08:19;;;;;;;9.00;6.20;;;;;;;;;;5070782;28;20051;-71
2023/10/24 10:10:46;;;;;;;6.75;5.70;;;;;;;;;;5072527;28;20093;-71
2023/10/24 10:13:13;;;;;;;8.35;5.40;;;;;;;;;;5071373;28;20044;-71
2023/10/24 10:15:39;;;;;;;9.10;5.80;;;;;;;;;;5071607;28;20117;-71
2023/10/24 10:18:08;;;;;;;7.25;6.22;;;;;;;;;;5071299;28;20068;-70
2023/10/24 10:20:49;;;;;;;7.85;6.00;;;;;;;;;;5063835;28;20032;-70
2023/10/24 10:23:33;;;;;;;8.30;5.88;;;;;;;;;;5072483;28;20047;-70
2023/10/24 10:26:11;;;;;;;9.57;6.18;;;;;;;;;;5066034;28;20124;-70
2023/10/24 10:28:37;;;;;;;8.95;6.25;;;;;;;;;;5062329;28;20040;-70
2023/10/24 10:31:06;;;;;;;8.35;6.38;;;;;;;;;;5072388;28;20115;-70
2023/10/24 10:33:32;;;;;;;8.68;6.57;;;;;;;;;;5063533;28;20135;-70
2023/10/24 10:36:03;;;;;;;8.50;6.50;;;;;;;;;;5068041;28;20037;-70
2023/10/24 10:38:37;;;;;;;9.00;7.00;;;;;;;;;;5063969;28;20036;-70
2023/10/24 10:41:25;;;;;;;9.13;6.82;;;;;;;;;;5056319;28;20047;-70
2023/10/24 10:43:59;;;;;;;12.43;7.60;;;;;;;;;;5068387;28;20044;-70
2023/10/24 10:46:29;;;;;;;10.23;6.97;;;;;;;;;;5064514;28;20449;-70
2023/10/24 10:48:59;;;;;;;9.38;6.65;;;;;;;;;;5067798;28;20574;-70
2023/10/24 10:51:28;;;;;;;11.70;6.93;;;;;;;;;;5064346;28;20067;-70
2023/10/24 10:54:02;;;;;;;10.57;7.00;;;;;;;;;;5063745;28;20047;-70
2023/10/24 10:56:30;;;;;;;11.05;7.57;;;;;;;;;;5068044;28;20040;-70
2023/10/24 10:59:09;;;;;;;11.27;7.75;;;;;;;;;;5070089;28;20048;-70
2023/10/24 11:01:50;;;;;;;10.55;7.13;;;;;;;;;;5071960;28;20046;-70
2023/10/24 11:04:16;;;;;;;12.43;7.45;;;;;;;;;;5068771;28;20044;-70
2023/10/24 11:06:52;;;;;;;10.50;7.78;;;;;;;;;;5070323;28;20036;-70
2023/10/24 11:09:22;;;;;;;10.60;7.85;;;;;;;;;;5070733;28;20119;-71
2023/10/24 11:12:09;;;;;;;11.93;8.57;;;;;;;;;;5066008;28;20066;-71
2023/10/24 11:14:35;;;;;;;12.75;8.38;;;;;;;;;;5077592;28;20053;-71
2023/10/24 11:17:02;;;;;;;11.95;8.85;;;;;;;;;;5069879;28;20162;-70
2023/10/24 11:19:28;;;;;;;12.00;8.35;;;;;;;;;;5070992;28;20039;-70
2023/10/24 11:22:09;;;;;;;12.73;8.50;;;;;;;;;;5048264;28;20044;-70
2023/10/24 11:24:35;;;;;;;12.27;8.18;;;;;;;;;;5071662;28;20055;-70
2023/10/24 11:27:04;;;;;;;11.63;8.45;;;;;;;;;;5068968;28;20033;-70
2023/10/24 11:29:31;;;;;;;11.07;8.50;;;;;;;;;;5070431;28;20048;-70
2023/10/24 11:31:58;;;;;;;14.55;9.15;;;;;;;;;;5069147;28;20411;-70
2023/10/24 11:34:24;;;;;;;11.48;8.60;;;;;;;;;;5060649;28;20519;-71
2023/10/24 11:36:51;;;;;;;13.68;8.73;;;;;;;;;;5068314;28;20037;-70
2023/10/24 11:39:17;;;;;;;14.00;8.95;;;;;;;;;;5070360;28;20036;-70
2023/10/24 11:41:44;;;;;;;11.30;8.48;;;;;;;;;;5062270;28;20037;-70
2023/10/24 11:44:11;;;;;;;11.85;8.25;;;;;;;;;;5068082;28;20115;-70
2023/10/24 11:46:39;;;;;;;10.88;8.30;;;;;;;;;;5069753;28;20356;-70
2023/10/24 11:49:05;;;;;;;11.30;8.10;;;;;;;;;;5071043;28;20033;-70
2023/10/24 11:51:31;;;;;;;11.95;8.75;;;;;;;;;;5072321;28;20037;-70
2023/10/24 11:54:00;;;;;;;12.52;8.05;;;;;;;;;;5071107;28;20106;-70
2023/10/24 11:56:27;;;;;;;11.80;8.32;;;;;;;;;;5070360;28;20124;-70
2023/10/24 11:58:52;;;;;;;10.45;8.45;;;;;;;;;;5068492;28;20089;-70
2023/10/24 12:01:18;;;;;;;14.23;9.02;;;;;;;;;;5068344;28;20410;-70
2023/10/24 12:03:46;;;;;;;12.60;8.82;;;;;;;;;;5070121;28;20150;-70
2023/10/24 12:06:12;;;;;;;14.02;9.85;;;;;;;;;;5070585;28;20499;-70
2023/10/24 12:08:38;;;;;;;14.13;9.25;;;;;;;;;;5057628;28;20033;-70
2023/10/24 12:11:04;;;;;;;14.27;9.30;;;;;;;;;;5065329;28;20483;-70
2023/10/24 12:13:30;;;;;;;10.60;8.90;;;;;;;;;;5070048;28;20041;-70
2023/10/24 12:15:57;;;;;;;12.75;8.75;;;;;;;;;;5067618;28;20482;-70
2023/10/24 12:18:23;;;;;;;11.50;9.43;;;;;;;;;;5059669;28;20047;-70
2023/10/24 12:20:49;;;;;;;12.32;8.70;;;;;;;;;;5063750;28;20087;-70
2023/10/24 12:23:16;;;;;;;10.90;8.50;;;;;;;;;;5069804;28;20390;-70
2023/10/24 12:25:42;;;;;;;10.80;8.40;;;;;;;;;;5075242;28;20112;-70
2023/10/24 12:28:08;;;;;;;10.55;9.05;;;;;;;;;;5068968;28;20527;-70
2023/10/24 12:30:34;;;;;;;11.75;8.88;;;;;;;;;;5073360;28;20414;-70
2023/10/24 12:33:00;;;;;;;12.80;9.18;;;;;;;;;;5067271;28;20055;-70
2023/10/24 12:35:27;;;;;;;11.20;8.68;;;;;;;;;;5064931;28;20067;-70
2023/10/24 12:37:53;;;;;;;12.13;8.85;;;;;;;;;;5063202;28;20124;-70
2023/10/24 12:40:19;;;;;;;11.82;8.68;;;;;;;;;;5067896;28;20177;-70
2023/10/24 12:42:45;;;;;;;13.15;9.23;;;;;;;;;;5072636;28;20036;-70
2023/10/24 12:45:11;;;;;;;13.90;8.82;;;;;;;;;;5067790;28;20041;-70
2023/10/24 12:47:37;;;;;;;13.10;9.00;;;;;;;;;;5071217;28;20123;-71
2023/10/24 12:50:03;;;;;;;11.25;8.48;;;;;;;;;;5074121;28;20166;-70
2023/10/24 12:52:29;;;;;;;13.32;9.18;;;;;;;;;;5074027;28;20036;-70
2023/10/24 12:54:55;;;;;;;12.57;8.95;;;;;;;;;;5073083;28;20036;-70
2023/10/24 12:57:22;;;;;;;12.57;8.93;;;;;;;;;;5068595;28;21828;-70
2023/10/24 12:59:48;;;;;;;10.68;8.88;;;;;;;;;;5070288;28;20044;-70
2023/10/24 13:02:15;;;;;;;11.27;9.13;;;;;;;;;;5062936;28;20039;-70
2023/10/24 13:04:44;;;;;;;10.35;8.10;;;;;;;;;;5071152;28;20403;-70
2023/10/24 13:07:09;;;;;;;12.00;8.68;;;;;;;;;;5072582;28;20036;-70
2023/10/24 13:09:37;;;;;;;11.32;8.65;;;;;;;;;;5068211;28;20091;-70
2023/10/24 13:12:04;;;;;;;9.20;7.68;;;;;;;;;;5071204;28;20055;-70
2023/10/24 13:14:30;;;;;;;12.73;8.40;;;;;;;;;;5073858;28;20064;-70
2023/10/24 13:16:56;;;;;;;11.05;8.10;;;;;;;;;;5073588;28;20503;-70
2023/10/24 13:19:23;;;;;;;9.68;7.50;;;;;;;;;;5061746;28;20368;-70
2023/10/24 13:21:49;;;;;;;10.55;8.23;;;;;;;;;;5067948;28;20146;-70
2023/10/24 13:24:15;;;;;;;9.85;7.15;;;;;;;;;;5073832;28;20045;-70
2023/10/24 13:26:42;;;;;;;10.25;7.30;;;;;;;;;;5059699;28;20049;-70
2023/10/24 13:29:08;;;;;;;11.48;7.45;;;;;;;;;;5053547;28;20079;-70
2023/10/24 13:31:34;;;;;;;10.43;7.28;;;;;;;;;;5066430;28;20040;-70
2023/10/24 13:34:00;;;;;;;8.10;6.80;;;;;;;;;;5073530;28;20032;-70
2023/10/24 13:36:26;;;;;;;11.27;7.28;;;;;;;;;;5067315;28;20048;-70
2023/10/24 13:38:52;;;;;;;7.68;6.68;;;;;;;;;;5069038;28;20785;-70
2023/10/24 13:41:18;;;;;;;7.53;6.20;;;;;;;;;;5067892;28;20041;-70
2023/10/24 13:43:44;;;;;;;8.13;6.22;;;;;;;;;;5073449;28;20036;-70
2023/10/24 13:46:10;;;;;;;9.15;6.28;;;;;;;;;;5069531;28;20040;-70
2023/10/24 13:48:36;;;;;;;8.75;6.65;;;;;;;;;;5067799;28;20040;-70
2023/10/24 13:51:02;;;;;;;8.77;6.60;;;;;;;;;;5066757;28;20119;-70
2023/10/24 13:53:28;;;;;;;9.25;6.55;;;;;;;;;;5063609;28;20044;-70
2023/10/24 13:55:54;;;;;;;6.43;5.72;;;;;;;;;;5068283;28;20594;-70
2023/10/24 13:58:20;;;;;;;8.85;6.40;;;;;;;;;;5054138;28;20037;-70
2023/10/24 14:00:47;;;;;;;9.27;6.30;;;;;;;;;;5065480;28;20067;-70
2023/10/24 14:03:13;;;;;;;8.38;6.40;;;;;;;;;;5053077;28;20037;-70
2023/10/24 14:05:40;;;;;;;8.38;6.03;;;;;;;;;;5068306;28;20075;-70
2023/10/24 14:08:06;;;;;;;7.82;6.78;;;;;;;;;;5064294;28;20044;-70
2023/10/24 14:10:33;;;;;;;8.00;6.60;;;;;;;;;;5060052;28;20045;-70
2023/10/24 14:12:59;;;;;;;8.75;6.40;;;;;;;;;;5065242;28;20044;-70
2023/10/24 14:15:25;;;;;;;12.88;7.25;;;;;;;;;;5071063;28;20162;-70
2023/10/24 14:17:51;;;;;;;9.40;7.25;;;;;;;;;;5070259;28;20040;-70
2023/10/24 14:20:17;;;;;;;11.32;7.07;;;;;;;;;;5070466;28;20036;-70
2023/10/24 14:22:48;;;;;;;8.45;6.85;;;;;;;;;;5071229;28;20037;-70
2023/10/24 14:25:14;;;;;;;8.65;7.60;;;;;;;;;;5067485;28;20048;-70